Terminal Aerodrome Forecast
Issued by NWS

Home | Current Version | Previous Version | Text Only | Print | Product List | Glossary On
Versions: 1 2 3 4 5 6 7 8 9 10 11 12 13 14 15 16 17 18 19 20 21 22 23 24 25 26 27
000
FTUS45 KVEF 230005 AAA
TAFBIH
TAF AMD
KBIH 230005Z 2300/2324 16016G26KT 6SM -SNRA BR SCT015 BKN030 OVC070
      TEMPO 2300/2303 4SM -SN OVC030
     FM230300 17018G28KT 4SM -SN BR SCT020 OVC030
     FM231200 33007KT P6SM VCSH SCT010 BKN030
     FM231800 32008KT P6SM SCT030 BKN080
     FM232100 34008KT P6SM SCT080=

USA.gov is the U.S. government's official web portal to all federal, state and local government web resources and services.